createdAt,value
2019-02-08T00:01:42.265Z,3.47
2019-02-08T00:04:11.592Z,2.97
2019-02-08T00:06:40.950Z,2.73
2019-02-08T00:09:10.815Z,2.97
2019-02-08T00:11:40.125Z,2.70
2019-02-08T00:14:09.839Z,3.07
2019-02-08T00:16:39.174Z,2.40
2019-02-08T00:19:08.642Z,3.03
2019-02-08T00:21:38.059Z,2.77
2019-02-08T00:24:08.395Z,2.23
2019-02-08T00:26:39.181Z,2.17
2019-02-08T00:29:09.944Z,2.03
2019-02-08T00:31:39.323Z,2.00
2019-02-08T00:34:09.630Z,2.20
2019-02-08T00:36:38.952Z,2.00
2019-02-08T00:39:11.823Z,2.30
2019-02-08T00:41:41.358Z,2.20
2019-02-08T00:44:10.794Z,2.77
2019-02-08T00:46:40.130Z,2.53
2019-02-08T00:49:09.447Z,2.40
2019-02-08T00:51:38.786Z,2.53
2019-02-08T00:54:08.300Z,3.60
2019-02-08T00:56:37.662Z,2.57
2019-02-08T00:59:07.269Z,2.30
2019-02-08T01:01:36.589Z,1.90
2019-02-08T01:04:07.720Z,3.33
2019-02-08T01:06:37.065Z,2.60
2019-02-08T01:09:09.629Z,2.17
2019-02-08T01:11:38.941Z,2.70
2019-02-08T01:14:08.540Z,2.17
2019-02-08T01:16:39.669Z,2.27
2019-02-08T01:19:08.982Z,2.63
2019-02-08T01:21:38.327Z,2.50
2019-02-08T01:24:07.693Z,2.50
2019-02-08T01:26:37.035Z,2.80
2019-02-08T01:29:07.705Z,2.13
2019-02-08T01:31:37.056Z,2.33
2019-02-08T01:34:06.657Z,1.87
2019-02-08T01:36:36.004Z,2.87
2019-02-08T01:39:08.049Z,2.30
2019-02-08T01:41:37.376Z,2.20
2019-02-08T01:44:07.200Z,2.27
2019-02-08T01:46:36.575Z,2.03
2019-02-08T01:49:08.899Z,2.40
2019-02-08T01:51:38.208Z,2.47
2019-02-08T01:54:07.528Z,2.03
2019-02-08T01:56:36.841Z,2.43
2019-02-08T01:59:08.423Z,1.70
2019-02-08T02:01:37.736Z,2.33
2019-02-08T02:04:07.096Z,2.33
2019-02-08T02:06:36.397Z,1.87
2019-02-08T02:09:09.117Z,1.80
2019-02-08T02:11:38.430Z,2.00
2019-02-08T02:14:07.890Z,1.73
2019-02-08T02:16:37.212Z,1.80
2019-02-08T02:19:06.669Z,1.70
2019-02-08T02:21:36.013Z,1.90
2019-02-08T02:24:05.396Z,1.13
2019-02-08T02:26:34.743Z,2.10
2019-02-08T02:29:05.888Z,1.97
2019-02-08T02:31:35.726Z,1.77
2019-02-08T02:34:05.159Z,1.50
2019-02-08T02:36:34.511Z,1.80
2019-02-08T02:39:05.328Z,2.50
2019-02-08T02:41:34.682Z,1.97
2019-02-08T02:44:03.993Z,1.83
2019-02-08T02:46:33.359Z,1.70
2019-02-08T02:49:02.667Z,2.73
2019-02-08T02:51:31.984Z,2.60
2019-02-08T02:54:04.958Z,2.03
2019-02-08T02:56:32.386Z,1.60
2019-02-08T02:59:02.864Z,2.07
2019-02-08T03:01:32.209Z,2.30
2019-02-08T03:04:01.565Z,2.07
2019-02-08T03:06:30.910Z,2.63
2019-02-08T03:09:00.240Z,2.20
2019-02-08T03:11:30.280Z,1.97
2019-02-08T03:13:59.644Z,2.00
2019-02-08T03:16:28.984Z,1.87
2019-02-08T03:18:58.295Z,2.03
2019-02-08T03:21:27.632Z,1.70
2019-02-08T03:23:57.018Z,1.73
2019-02-08T03:26:26.367Z,1.97
2019-02-08T03:28:55.714Z,1.70
2019-02-08T03:31:25.033Z,1.40
2019-02-08T03:33:54.370Z,1.87
2019-02-08T03:36:23.700Z,1.77
2019-02-08T03:38:53.017Z,1.37
2019-02-08T03:41:23.468Z,1.63
2019-02-08T03:43:52.783Z,1.63
2019-02-08T03:46:22.130Z,1.50
2019-02-08T03:48:52.908Z,1.40
2019-02-08T03:51:22.231Z,1.70
2019-02-08T03:53:51.529Z,2.00
2019-02-08T03:56:20.863Z,2.70
2019-02-08T03:58:50.191Z,1.77
2019-02-08T04:01:20.839Z,1.97
2019-02-08T04:03:50.722Z,2.63
2019-02-08T04:06:20.074Z,2.60
2019-02-08T04:08:49.392Z,2.93
2019-02-08T04:11:18.752Z,2.70
2019-02-08T04:13:48.073Z,3.27
2019-02-08T04:16:17.395Z,2.60
2019-02-08T04:18:46.727Z,2.93
2019-02-08T04:21:16.037Z,2.07
2019-02-08T04:23:45.420Z,2.23
2019-02-08T04:26:14.734Z,2.13
2019-02-08T04:28:45.083Z,2.30
2019-02-08T04:31:14.459Z,2.50
2019-02-08T04:33:43.779Z,2.10
2019-02-08T04:36:13.086Z,1.80
2019-02-08T04:38:42.425Z,2.03
2019-02-08T04:41:11.727Z,2.30
2019-02-08T04:43:41.074Z,2.27
2019-02-08T04:46:10.385Z,2.03
2019-02-08T04:48:39.730Z,2.10
2019-02-08T04:51:09.061Z,1.83
2019-02-08T04:53:38.382Z,1.80
2019-02-08T04:56:07.747Z,1.53
2019-02-08T04:58:37.054Z,1.47
2019-02-08T05:01:06.359Z,1.40
2019-02-08T05:03:35.730Z,2.07
2019-02-08T05:06:05.169Z,1.37
2019-02-08T05:08:34.502Z,1.50
2019-02-08T05:11:16.147Z,1.53
2019-02-08T05:13:46.529Z,1.70
2019-02-08T05:16:15.852Z,1.30
2019-02-08T05:18:47.215Z,1.40
2019-02-08T05:21:16.525Z,1.60
2019-02-08T05:23:45.948Z,2.03
2019-02-08T05:26:15.271Z,2.30
2019-02-08T05:28:44.583Z,2.00
2019-02-08T05:31:13.934Z,2.37
2019-02-08T05:33:43.241Z,2.23
2019-02-08T05:36:12.615Z,2.47
2019-02-08T05:38:41.946Z,2.27
2019-02-08T05:41:11.281Z,3.07
2019-02-08T05:43:40.987Z,2.80
2019-02-08T05:46:10.315Z,2.70
2019-02-08T05:48:39.650Z,3.10
2019-02-08T05:51:08.996Z,3.03
2019-02-08T05:53:38.317Z,2.60
2019-02-08T05:56:07.677Z,3.30
2019-02-08T05:58:36.990Z,3.33
2019-02-08T06:01:06.311Z,3.50
2019-02-08T06:03:35.670Z,3.33
2019-02-08T06:06:05.187Z,3.57
2019-02-08T06:08:34.523Z,3.90
2019-02-08T06:11:03.868Z,3.40
2019-02-08T06:13:33.282Z,3.50
2019-02-08T06:16:02.604Z,4.17
2019-02-08T06:18:31.930Z,4.53
2019-02-08T06:21:01.241Z,4.77
2019-02-08T06:23:30.577Z,4.57
2019-02-08T06:25:59.989Z,4.87
2019-02-08T06:28:29.307Z,4.60
2019-02-08T06:30:58.644Z,4.73
2019-02-08T06:33:27.946Z,4.60
2019-02-08T06:35:57.359Z,4.13
2019-02-08T06:38:26.690Z,5.17
2019-02-08T06:40:56.027Z,4.23
2019-02-08T06:43:25.367Z,5.00
2019-02-08T06:45:54.703Z,4.80
2019-02-08T06:48:24.034Z,4.97
2019-02-08T06:50:53.349Z,4.47
2019-02-08T06:53:22.720Z,4.20
2019-02-08T06:55:53.919Z,3.90
2019-02-08T06:58:28.837Z,4.00
2019-02-08T07:01:15.881Z,4.97
2019-02-08T07:04:06.931Z,4.13
2019-02-08T07:07:07.483Z,4.70
2019-02-08T07:09:55.732Z,4.23
2019-02-08T07:12:43.981Z,5.13
2019-02-08T07:15:47.405Z,5.27
2019-02-08T07:18:51.013Z,5.40
2019-02-08T07:21:45.107Z,4.87
2019-02-08T07:24:21.963Z,4.63
2019-02-08T07:27:15.216Z,4.50
2019-02-08T07:29:51.533Z,4.10
2019-02-08T07:32:48.986Z,5.13
2019-02-08T07:35:43.926Z,4.80
2019-02-08T07:38:38.284Z,4.27
2019-02-08T07:41:31.863Z,4.93
2019-02-08T07:44:26.683Z,5.27
2019-02-08T07:47:19.715Z,4.73
2019-02-08T07:49:56.450Z,4.37
2019-02-08T07:52:57.589Z,4.37
2019-02-08T07:55:43.066Z,5.10
2019-02-08T07:58:22.683Z,3.63
2019-02-08T08:01:10.403Z,4.37
2019-02-08T08:04:01.397Z,4.63
2019-02-08T08:06:50.325Z,4.27
2019-02-08T08:09:43.239Z,5.00
2019-02-08T08:12:31.509Z,3.80
2019-02-08T08:15:18.732Z,5.00
2019-02-08T08:21:03.171Z,4.77
2019-02-08T08:23:48.115Z,4.07
2019-02-08T08:26:38.515Z,5.40
2019-02-08T08:29:39.241Z,5.07
2019-02-08T08:32:17.783Z,5.00
2019-02-08T08:35:25.150Z,4.57
2019-02-08T08:38:34.465Z,4.80
2019-02-08T08:41:47.534Z,5.40
2019-02-08T08:44:51.897Z,4.73
2019-02-08T08:47:57.728Z,4.63
2019-02-08T08:51:17.566Z,4.37
2019-02-08T08:54:26.402Z,5.27
2019-02-08T08:57:35.102Z,4.33
2019-02-08T09:00:39.440Z,5.00
2019-02-08T09:03:32.895Z,5.20
2019-02-08T09:06:45.975Z,4.70
2019-02-08T09:09:54.527Z,4.73
2019-02-08T09:12:33.764Z,5.03
2019-02-08T09:15:33.677Z,5.20
2019-02-08T09:18:51.142Z,4.97
2019-02-08T09:22:02.935Z,4.67
2019-02-08T09:25:13.608Z,5.07
2019-02-08T09:28:39.726Z,4.47
2019-02-08T09:31:54.865Z,4.00
2019-02-08T09:35:08.377Z,4.23
2019-02-08T09:38:27.722Z,5.30
2019-02-08T09:41:31.015Z,3.93
2019-02-08T09:44:29.699Z,4.10
2019-02-08T09:48:00.627Z,3.37
2019-02-08T09:51:13.609Z,3.60
2019-02-08T09:54:15.757Z,3.00
2019-02-08T09:57:21.574Z,3.70
2019-02-08T10:00:35.662Z,2.80
2019-02-08T10:04:00.969Z,3.43
2019-02-08T10:07:17.536Z,4.17
2019-02-08T10:10:36.771Z,3.03
2019-02-08T10:13:53.470Z,2.97
2019-02-08T10:17:18.791Z,3.23
2019-02-08T10:20:27.564Z,2.80
2019-02-08T10:23:43.921Z,3.20
2019-02-08T10:26:56.861Z,3.57
2019-02-08T10:30:10.017Z,3.80
2019-02-08T10:33:25.829Z,3.20
2019-02-08T10:36:28.433Z,2.93
2019-02-08T10:39:35.062Z,5.10
2019-02-08T10:42:35.273Z,4.97
2019-02-08T10:45:40.139Z,5.00
2019-02-08T10:48:46.684Z,4.53
2019-02-08T10:52:10.741Z,5.90
2019-02-08T10:55:12.317Z,6.37
2019-02-08T10:58:22.088Z,5.13
2019-02-08T11:01:42.182Z,5.63
2019-02-08T11:04:49.747Z,6.47
2019-02-08T11:08:07.785Z,4.90
2019-02-08T11:11:32.091Z,5.83
2019-02-08T11:14:44.750Z,5.10
2019-02-08T11:17:57.120Z,4.40
2019-02-08T11:20:26.484Z,5.40
2019-02-08T11:22:55.846Z,5.07
2019-02-08T11:25:25.299Z,5.23
2019-02-08T11:27:54.675Z,6.67
2019-02-08T11:30:23.613Z,7.73
2019-02-08T11:32:52.968Z,7.40
2019-02-08T11:35:23.435Z,5.87
2019-02-08T11:37:52.792Z,7.33
2019-02-08T11:40:26.274Z,5.80
2019-02-08T11:42:55.657Z,6.87
2019-02-08T11:45:25.005Z,6.33
2019-02-08T11:47:54.391Z,5.47
2019-02-08T11:50:23.844Z,6.73
2019-02-08T11:52:53.190Z,7.00
2019-02-08T11:55:22.559Z,8.43
2019-02-08T11:57:51.957Z,5.53
2019-02-08T12:00:30.450Z,5.33
2019-02-08T12:02:59.828Z,4.30
2019-02-08T12:05:29.186Z,3.90
2019-02-08T12:07:58.707Z,4.43
2019-02-08T12:10:28.083Z,4.40
2019-02-08T12:12:57.399Z,4.47
2019-02-08T12:15:27.075Z,4.60
2019-02-08T12:17:56.406Z,4.83
2019-02-08T12:20:25.746Z,4.97
2019-02-08T12:22:55.092Z,6.57
2019-02-08T12:25:25.678Z,6.80
2019-02-08T12:27:54.996Z,5.57
2019-02-08T12:30:31.062Z,7.50
2019-02-08T12:33:00.427Z,7.30
2019-02-08T12:35:29.905Z,7.07
2019-02-08T12:37:59.232Z,7.67
2019-02-08T12:40:28.623Z,6.37
2019-02-08T12:42:58.057Z,5.73
2019-02-08T12:45:27.400Z,6.13
2019-02-08T12:47:57.883Z,6.23
2019-02-08T12:50:27.248Z,7.00
2019-02-08T12:52:56.779Z,7.17
2019-02-08T12:55:26.443Z,5.53
2019-02-08T12:57:55.820Z,6.93
2019-02-08T13:00:25.458Z,5.10
2019-02-08T13:02:54.927Z,7.13
2019-02-08T13:05:24.378Z,5.67
2019-02-08T13:07:53.927Z,8.13
2019-02-08T13:10:23.823Z,9.50
2019-02-08T13:12:53.961Z,8.73
2019-02-08T13:15:23.385Z,7.30
2019-02-08T13:17:52.763Z,6.13
2019-02-08T13:20:22.457Z,6.13
2019-02-08T13:22:51.864Z,7.23
2019-02-08T13:25:21.298Z,4.93
2019-02-08T13:27:51.775Z,6.87
2019-02-08T13:30:23.729Z,7.20
2019-02-08T13:32:53.180Z,6.63
2019-02-08T13:35:22.628Z,7.00
2019-02-08T13:37:52.229Z,8.37
2019-02-08T13:40:22.848Z,6.60
2019-02-08T13:42:52.190Z,8.03
2019-02-08T13:45:21.741Z,8.73
2019-02-08T13:47:51.140Z,8.57
2019-02-08T13:50:22.893Z,5.77
2019-02-08T13:52:52.261Z,6.90
2019-02-08T13:55:22.943Z,6.77
2019-02-08T13:57:52.472Z,7.83
2019-02-08T14:00:25.023Z,5.83
2019-02-08T14:02:54.506Z,6.37
2019-02-08T14:05:24.037Z,5.20
2019-02-08T14:07:53.492Z,6.10
2019-02-08T14:10:23.249Z,7.70
2019-02-08T14:12:52.879Z,6.83
2019-02-08T14:15:23.159Z,6.47
2019-02-08T14:17:52.617Z,6.63
2019-02-08T14:20:23.525Z,6.17
2019-02-08T14:23:14.202Z,7.13
2019-02-08T14:25:43.558Z,9.07
2019-02-08T14:28:12.953Z,10.07
2019-02-08T14:30:43.029Z,9.90
2019-02-08T14:33:12.494Z,9.33
2019-02-08T14:35:43.298Z,7.90
2019-02-08T14:38:17.146Z,5.67
2019-02-08T14:40:46.927Z,6.30
2019-02-08T14:43:16.290Z,5.90
2019-02-08T14:45:45.673Z,6.90
2019-02-08T14:48:15.045Z,5.07
2019-02-08T14:50:44.362Z,7.00
2019-02-08T14:53:13.726Z,5.90
2019-02-08T14:55:43.097Z,5.77
2019-02-08T14:58:12.545Z,6.93
2019-02-08T15:00:41.883Z,7.73
2019-02-08T15:03:11.252Z,6.70
2019-02-08T15:05:40.701Z,6.63
2019-02-08T15:08:10.033Z,6.73
2019-02-08T15:10:44.881Z,8.20
2019-02-08T15:13:14.259Z,8.40
2019-02-08T15:15:43.605Z,5.80
2019-02-08T15:18:12.977Z,6.33
2019-02-08T15:20:42.309Z,5.63
2019-02-08T15:23:11.773Z,5.80
2019-02-08T15:25:41.102Z,4.47
2019-02-08T15:28:10.455Z,5.13
2019-02-08T15:30:39.944Z,4.57
2019-02-08T15:33:09.275Z,4.47
2019-02-08T15:35:38.592Z,5.37
2019-02-08T15:38:07.939Z,4.70
2019-02-08T15:40:48.750Z,5.43
2019-02-08T15:43:19.794Z,6.33
2019-02-08T15:45:54.947Z,4.30
2019-02-08T15:48:24.386Z,4.60
2019-02-08T15:50:53.704Z,5.37
2019-02-08T15:53:23.078Z,4.27
2019-02-08T15:55:55.088Z,5.13
2019-02-08T15:58:24.435Z,3.97
2019-02-08T16:00:54.396Z,5.20
2019-02-08T16:03:23.880Z,4.53
2019-02-08T16:05:53.383Z,4.87
2019-02-08T16:08:23.184Z,7.50
2019-02-08T16:10:52.957Z,5.60
2019-02-08T16:13:22.467Z,7.23
2019-02-08T16:15:52.073Z,6.03
2019-02-08T16:18:21.562Z,4.30
2019-02-08T16:20:51.028Z,4.90
2019-02-08T16:23:20.460Z,3.00
2019-02-08T16:25:49.964Z,3.33
2019-02-08T16:28:19.378Z,5.97
2019-02-08T16:30:48.891Z,4.47
2019-02-08T16:33:18.462Z,7.30
2019-02-08T16:35:47.993Z,6.27
2019-02-08T16:38:18.769Z,7.60
2019-02-08T16:40:48.693Z,5.60
2019-02-08T16:43:17.997Z,6.00
2019-02-08T16:45:47.550Z,5.10
2019-02-08T16:48:17.323Z,4.77
2019-02-08T16:50:47.250Z,5.07
2019-02-08T16:53:16.751Z,5.93
2019-02-08T16:55:46.185Z,4.63
2019-02-08T16:58:15.595Z,6.30
2019-02-08T17:00:45.092Z,4.77
2019-02-08T17:03:14.753Z,6.40
2019-02-08T17:05:44.751Z,5.03
2019-02-08T17:08:14.076Z,6.10
2019-02-08T17:10:45.672Z,6.30
2019-02-08T17:13:15.016Z,5.17
2019-02-08T17:15:44.384Z,4.17
2019-02-08T17:18:13.752Z,3.60
2019-02-08T17:20:45.331Z,4.20
2019-02-08T17:23:14.672Z,4.40
2019-02-08T17:25:44.513Z,4.40
2019-02-08T17:28:13.864Z,4.67
2019-02-08T17:30:43.274Z,4.93
2019-02-08T17:33:12.805Z,4.97
2019-02-08T17:35:42.156Z,4.23
2019-02-08T17:38:11.509Z,4.43
2019-02-08T17:40:42.654Z,4.07
2019-02-08T17:43:11.980Z,2.47
2019-02-08T17:45:41.324Z,3.33
2019-02-08T17:48:13.433Z,2.37
2019-02-08T17:50:42.986Z,2.63
2019-02-08T17:53:12.296Z,2.83
2019-02-08T17:55:41.735Z,4.70
2019-02-08T17:58:11.042Z,4.33
2019-02-08T18:00:45.009Z,8.17
2019-02-08T18:03:14.342Z,7.93
2019-02-08T18:05:43.950Z,10.90
2019-02-08T18:08:13.646Z,12.43
2019-02-08T18:10:43.143Z,7.40
2019-02-08T18:13:12.641Z,4.53
2019-02-08T18:16:09.216Z,4.73
2019-02-08T18:18:38.609Z,6.23
2019-02-08T18:21:10.630Z,5.20
2019-02-08T18:23:40.067Z,4.63
2019-02-08T18:26:09.413Z,4.03
2019-02-08T18:28:38.907Z,3.90
2019-02-08T18:31:08.365Z,3.10
2019-02-08T18:33:38.934Z,2.90
2019-02-08T18:36:08.516Z,2.30
2019-02-08T18:38:37.849Z,3.33
2019-02-08T18:41:07.453Z,6.90
2019-02-08T18:43:36.793Z,10.07
2019-02-08T18:46:06.273Z,4.70
2019-02-08T18:48:35.649Z,4.37
2019-02-08T18:51:05.038Z,4.97
2019-02-08T18:53:34.417Z,4.87
2019-02-08T18:56:03.875Z,4.03
2019-02-08T18:58:33.443Z,5.17
2019-02-08T19:01:02.957Z,4.97
2019-02-08T19:03:32.296Z,5.53
2019-02-08T19:06:01.643Z,6.80
2019-02-08T19:08:31.048Z,5.70
2019-02-08T19:11:01.368Z,4.77
2019-02-08T19:13:30.724Z,4.67
2019-02-08T19:16:00.075Z,4.43
2019-02-08T19:18:29.542Z,4.83
2019-02-08T19:20:58.904Z,2.97
2019-02-08T19:23:28.232Z,2.53
2019-02-08T19:25:57.579Z,2.13
2019-02-08T19:28:26.940Z,3.17
2019-02-08T19:30:56.277Z,3.10
2019-02-08T19:33:25.748Z,3.27
2019-02-08T19:35:55.135Z,3.90
2019-02-08T19:38:24.515Z,4.40
2019-02-08T19:40:53.831Z,5.13
2019-02-08T19:43:23.295Z,4.67
2019-02-08T19:45:52.872Z,3.70
2019-02-08T19:48:22.200Z,3.57
2019-02-08T19:50:51.542Z,4.03
2019-02-08T19:53:20.890Z,4.33
2019-02-08T19:56:05.470Z,3.07
2019-02-08T19:58:35.032Z,3.90
2019-02-08T20:01:05.453Z,4.97
2019-02-08T20:03:35.708Z,4.97
2019-02-08T20:06:05.282Z,4.37
2019-02-08T20:08:35.685Z,3.67
2019-02-08T20:11:05.200Z,5.20
2019-02-08T20:13:34.532Z,4.13
2019-02-08T20:16:03.878Z,4.10
2019-02-08T20:18:33.197Z,3.23
2019-02-08T20:21:02.500Z,3.57
2019-02-08T20:23:31.848Z,4.70
2019-02-08T20:26:01.196Z,4.17
2019-02-08T20:28:30.538Z,2.83
2019-02-08T20:30:59.850Z,3.00
2019-02-08T20:33:29.210Z,3.70
2019-02-08T20:35:58.553Z,3.87
2019-02-08T20:38:27.936Z,3.03
2019-02-08T20:40:57.264Z,2.17
2019-02-08T20:43:26.610Z,3.40
2019-02-08T20:45:55.970Z,3.27
2019-02-08T20:48:25.300Z,4.27
2019-02-08T20:50:54.651Z,3.77
2019-02-08T20:53:24.568Z,3.50
2019-02-08T20:55:54.051Z,4.10
2019-02-08T20:58:23.402Z,3.70
2019-02-08T21:00:53.921Z,4.33
2019-02-08T21:03:25.048Z,4.93
2019-02-08T21:05:54.599Z,5.23
2019-02-08T21:08:23.931Z,4.67
2019-02-08T21:10:53.272Z,4.63
2019-02-08T21:13:22.622Z,5.40
2019-02-08T21:15:51.939Z,4.40
2019-02-08T21:18:21.258Z,4.37
2019-02-08T21:20:50.711Z,5.07
2019-02-08T21:23:20.123Z,4.40
2019-02-08T21:25:52.315Z,5.53
2019-02-08T21:28:20.530Z,6.77
2019-02-08T21:30:49.859Z,4.67
2019-02-08T21:33:19.227Z,2.37
2019-02-08T21:35:49.604Z,3.73
2019-02-08T21:38:19.003Z,3.27
2019-02-08T21:40:48.458Z,3.97
2019-02-08T21:43:17.791Z,3.97
2019-02-08T21:45:48.710Z,3.57
2019-02-08T21:48:18.051Z,4.70
2019-02-08T21:50:47.361Z,6.07
2019-02-08T21:53:16.703Z,4.27
2019-02-08T21:55:46.038Z,3.73
2019-02-08T21:58:16.415Z,4.53
2019-02-08T22:00:46.025Z,3.73
2019-02-08T22:03:15.360Z,4.10
2019-02-08T22:05:47.613Z,3.20
2019-02-08T22:08:16.974Z,4.90
2019-02-08T22:10:46.288Z,4.40
2019-02-08T22:13:15.648Z,3.83
2019-02-08T22:15:45.164Z,4.60
2019-02-08T22:18:14.487Z,6.13
2019-02-08T22:20:43.844Z,5.40
2019-02-08T22:23:13.149Z,5.80
2019-02-08T22:25:42.549Z,6.23
2019-02-08T22:28:12.445Z,5.83
2019-02-08T22:30:42.164Z,5.83
2019-02-08T22:33:11.541Z,5.70
2019-02-08T22:35:40.996Z,7.00
2019-02-08T22:38:10.349Z,6.27
2019-02-08T22:40:39.816Z,5.47
2019-02-08T22:43:09.189Z,4.67
2019-02-08T22:45:40.101Z,5.27
2019-02-08T22:48:09.766Z,5.80
2019-02-08T22:50:40.799Z,6.27
2019-02-08T22:53:10.721Z,4.93
2019-02-08T22:55:40.290Z,3.13
2019-02-08T22:58:09.985Z,3.47
2019-02-08T23:01:23.441Z,3.97
2019-02-08T23:03:53.628Z,4.70
2019-02-08T23:06:23.041Z,5.57
2019-02-08T23:08:52.402Z,4.40
2019-02-08T23:11:21.808Z,2.43
2019-02-08T23:13:51.131Z,2.47
2019-02-08T23:16:20.516Z,4.50
2019-02-08T23:18:49.835Z,5.20
2019-02-08T23:21:19.192Z,5.83
2019-02-08T23:23:48.547Z,7.03
2019-02-08T23:26:17.883Z,7.63
2019-02-08T23:28:47.235Z,6.33
2019-02-08T23:31:18.071Z,6.70
2019-02-08T23:33:47.386Z,4.47
2019-02-08T23:36:16.744Z,4.63
2019-02-08T23:38:46.116Z,7.17
2019-02-08T23:41:15.474Z,5.77
2019-02-08T23:43:44.792Z,5.27
2019-02-08T23:46:14.151Z,3.07
2019-02-08T23:48:43.482Z,4.90
2019-02-08T23:51:12.841Z,4.43
2019-02-08T23:53:42.175Z,4.93
2019-02-08T23:56:11.487Z,4.37
2019-02-08T23:58:42.903Z,6.30
